sensor_id;sensor_type;location;lat;lon;timestamp;temperature;humidity
16247;DHT22;8231;50.866;7.944;2023-04-16T00:00:12;7.50;99.90
16247;DHT22;8231;50.866;7.944;2023-04-16T00:03:23;8.10;99.90
16247;DHT22;8231;50.866;7.944;2023-04-16T00:06:25;7.60;99.90
16247;DHT22;8231;50.866;7.944;2023-04-16T00:09:24;8.40;99.90
16247;DHT22;8231;50.866;7.944;2023-04-16T00:12:29;7.60;99.90
16247;DHT22;8231;50.866;7.944;2023-04-16T00:15:25;7.90;99.90
16247;DHT22;8231;50.866;7.944;2023-04-16T00:18:12;7.60;99.90
16247;DHT22;8231;50.866;7.944;2023-04-16T00:21:20;7.70;99.90
16247;DHT22;8231;50.866;7.944;2023-04-16T00:24:26;8.40;99.90
16247;DHT22;8231;50.866;7.944;2023-04-16T00:27:19;7.70;99.90
16247;DHT22;8231;50.866;7.944;2023-04-16T00:30:11;7.50;99.90
16247;DHT22;8231;50.866;7.944;2023-04-16T00:33:17;7.60;99.90
16247;DHT22;8231;50.866;7.944;2023-04-16T00:36:08;8.00;99.90
16247;DHT22;8231;50.866;7.944;2023-04-16T00:38:51;8.00;99.90
16247;DHT22;8231;50.866;7.944;2023-04-16T00:41:34;7.60;99.90
16247;DHT22;8231;50.866;7.944;2023-04-16T00:47:25;8.10;99.90
16247;DHT22;8231;50.866;7.944;2023-04-16T00:50:16;7.70;99.90
16247;DHT22;8231;50.866;7.944;2023-04-16T00:53:16;7.70;99.90
16247;DHT22;8231;50.866;7.944;2023-04-16T00:56:23;7.70;99.90
16247;DHT22;8231;50.866;7.944;2023-04-16T00:59:16;7.70;99.90
16247;DHT22;8231;50.866;7.944;2023-04-16T01:01:57;7.60;99.90
16247;DHT22;8231;50.866;7.944;2023-04-16T01:04:55;7.70;99.90
16247;DHT22;8231;50.866;7.944;2023-04-16T01:07:36;7.80;99.90
16247;DHT22;8231;50.866;7.944;2023-04-16T01:10:08;8.00;99.90
16247;DHT22;8231;50.866;7.944;2023-04-16T01:12:56;8.10;99.90
16247;DHT22;8231;50.866;7.944;2023-04-16T01:16:04;7.70;99.90
16247;DHT22;8231;50.866;7.944;2023-04-16T01:18:41;8.20;99.90
16247;DHT22;8231;50.866;7.944;2023-04-16T01:21:34;7.90;99.90
16247;DHT22;8231;50.866;7.944;2023-04-16T01:24:18;7.40;99.90
16247;DHT22;8231;50.866;7.944;2023-04-16T01:26:58;8.00;99.90
16247;DHT22;8231;50.866;7.944;2023-04-16T01:29:34;7.70;99.90
16247;DHT22;8231;50.866;7.944;2023-04-16T01:32:14;7.90;99.90
16247;DHT22;8231;50.866;7.944;2023-04-16T01:34:51;7.70;99.90
16247;DHT22;8231;50.866;7.944;2023-04-16T01:38:43;8.00;99.90
16247;DHT22;8231;50.866;7.944;2023-04-16T01:42:59;7.60;99.90
16247;DHT22;8231;50.866;7.944;2023-04-16T01:46:13;7.80;99.90
16247;DHT22;8231;50.866;7.944;2023-04-16T01:53:05;7.90;99.90
16247;DHT22;8231;50.866;7.944;2023-04-16T01:56:09;8.60;99.90
16247;DHT22;8231;50.866;7.944;2023-04-16T01:59:27;7.60;99.90
16247;DHT22;8231;50.866;7.944;2023-04-16T02:02:38;7.90;99.90
16247;DHT22;8231;50.866;7.944;2023-04-16T02:19:31;7.60;99.90
16247;DHT22;8231;50.866;7.944;2023-04-16T02:23:19;7.70;99.90
16247;DHT22;8231;50.866;7.944;2023-04-16T02:27:10;7.50;99.90
16247;DHT22;8231;50.866;7.944;2023-04-16T02:30:24;7.60;99.90
16247;DHT22;8231;50.866;7.944;2023-04-16T02:33:59;8.00;99.90
16247;DHT22;8231;50.866;7.944;2023-04-16T02:38:02;7.60;99.90
16247;DHT22;8231;50.866;7.944;2023-04-16T02:42:06;7.80;99.90
16247;DHT22;8231;50.866;7.944;2023-04-16T02:45:32;7.90;99.90
16247;DHT22;8231;50.866;7.944;2023-04-16T02:48:37;7.60;99.90
16247;DHT22;8231;50.866;7.944;2023-04-16T02:51:24;7.60;99.90
16247;DHT22;8231;50.866;7.944;2023-04-16T02:54:17;7.60;99.90
16247;DHT22;8231;50.866;7.944;2023-04-16T02:57:16;7.80;99.90
16247;DHT22;8231;50.866;7.944;2023-04-16T03:01:04;7.60;99.90
16247;DHT22;8231;50.866;7.944;2023-04-16T03:04:48;7.90;99.90
16247;DHT22;8231;50.866;7.944;2023-04-16T03:08:32;7.40;99.90
16247;DHT22;8231;50.866;7.944;2023-04-16T03:11:03;7.90;99.90
16247;DHT22;8231;50.866;7.944;2023-04-16T03:13:31;8.10;99.90
16247;DHT22;8231;50.866;7.944;2023-04-16T03:16:01;7.60;99.90
16247;DHT22;8231;50.866;7.944;2023-04-16T03:18:29;8.00;99.90
16247;DHT22;8231;50.866;7.944;2023-04-16T03:22:09;8.00;99.90
16247;DHT22;8231;50.866;7.944;2023-04-16T04:12:12;7.50;99.90
16247;DHT22;8231;50.866;7.944;2023-04-16T04:14:50;8.10;99.90
16247;DHT22;8231;50.866;7.944;2023-04-16T13:47:21;12.50;99.90
16247;DHT22;8231;50.866;7.944;2023-04-16T13:50:26;12.50;99.90
16247;DHT22;8231;50.866;7.944;2023-04-16T13:53:04;12.70;99.90
16247;DHT22;8231;50.866;7.944;2023-04-16T13:55:36;12.50;99.90
16247;DHT22;8231;50.866;7.944;2023-04-16T13:58:05;12.50;99.90
16247;DHT22;8231;50.866;7.944;2023-04-16T14:00:34;12.20;99.90
16247;DHT22;8231;50.866;7.944;2023-04-16T14:03:03;12.00;99.90
16247;DHT22;8231;50.866;7.944;2023-04-16T14:05:32;12.00;99.90
16247;DHT22;8231;50.866;7.944;2023-04-16T14:08:01;12.00;99.90
16247;DHT22;8231;50.866;7.944;2023-04-16T14:10:29;12.10;99.90
16247;DHT22;8231;50.866;7.944;2023-04-16T14:12:58;12.10;99.90
16247;DHT22;8231;50.866;7.944;2023-04-16T14:15:26;11.90;99.90
16247;DHT22;8231;50.866;7.944;2023-04-16T14:17:55;11.80;99.90
16247;DHT22;8231;50.866;7.944;2023-04-16T14:20:25;11.90;99.90
16247;DHT22;8231;50.866;7.944;2023-04-16T14:22:53;12.10;99.90
16247;DHT22;8231;50.866;7.944;2023-04-16T14:25:22;12.00;99.90
16247;DHT22;8231;50.866;7.944;2023-04-16T14:27:50;12.00;99.90
16247;DHT22;8231;50.866;7.944;2023-04-16T14:30:18;11.90;99.90
16247;DHT22;8231;50.866;7.944;2023-04-16T14:32:47;11.90;99.90
16247;DHT22;8231;50.866;7.944;2023-04-16T14:35:15;11.90;99.90
16247;DHT22;8231;50.866;7.944;2023-04-16T14:37:45;12.00;99.90
16247;DHT22;8231;50.866;7.944;2023-04-16T14:40:13;12.20;99.90
16247;DHT22;8231;50.866;7.944;2023-04-16T14:42:41;12.20;99.90
16247;DHT22;8231;50.866;7.944;2023-04-16T14:45:09;12.20;99.90
16247;DHT22;8231;50.866;7.944;2023-04-16T14:47:37;12.30;99.90
16247;DHT22;8231;50.866;7.944;2023-04-16T14:50:12;12.40;99.90
16247;DHT22;8231;50.866;7.944;2023-04-16T14:52:40;12.40;99.90
16247;DHT22;8231;50.866;7.944;2023-04-16T14:55:10;12.20;99.90
16247;DHT22;8231;50.866;7.944;2023-04-16T14:57:38;12.10;99.90
16247;DHT22;8231;50.866;7.944;2023-04-16T15:00:08;12.10;99.90
16247;DHT22;8231;50.866;7.944;2023-04-16T15:02:37;12.00;99.90
16247;DHT22;8231;50.866;7.944;2023-04-16T15:05:06;11.90;99.90
16247;DHT22;8231;50.866;7.944;2023-04-16T15:07:36;11.80;99.90
16247;DHT22;8231;50.866;7.944;2023-04-16T15:10:05;11.80;99.90
16247;DHT22;8231;50.866;7.944;2023-04-16T15:12:36;11.60;99.90
16247;DHT22;8231;50.866;7.944;2023-04-16T15:15:05;11.60;99.90
16247;DHT22;8231;50.866;7.944;2023-04-16T15:17:33;11.80;99.90
16247;DHT22;8231;50.866;7.944;2023-04-16T15:20:02;11.90;99.90
16247;DHT22;8231;50.866;7.944;2023-04-16T15:22:34;12.00;99.90
16247;DHT22;8231;50.866;7.944;2023-04-16T15:25:02;12.10;99.90
16247;DHT22;8231;50.866;7.944;2023-04-16T15:27:31;12.10;99.90
16247;DHT22;8231;50.866;7.944;2023-04-16T15:30:01;11.90;99.90
16247;DHT22;8231;50.866;7.944;2023-04-16T15:32:30;11.80;99.90
16247;DHT22;8231;50.866;7.944;2023-04-16T15:35:01;11.80;99.90
16247;DHT22;8231;50.866;7.944;2023-04-16T15:37:29;11.70;99.90
16247;DHT22;8231;50.866;7.944;2023-04-16T15:39:57;11.70;99.90
16247;DHT22;8231;50.866;7.944;2023-04-16T15:42:25;11.50;99.90
16247;DHT22;8231;50.866;7.944;2023-04-16T15:44:54;11.50;99.90
16247;DHT22;8231;50.866;7.944;2023-04-16T15:47:23;11.50;99.90
16247;DHT22;8231;50.866;7.944;2023-04-16T15:49:51;11.40;99.90
16247;DHT22;8231;50.866;7.944;2023-04-16T15:52:19;11.40;99.90
16247;DHT22;8231;50.866;7.944;2023-04-16T15:54:48;11.30;99.90
16247;DHT22;8231;50.866;7.944;2023-04-16T15:57:16;11.20;99.90
16247;DHT22;8231;50.866;7.944;2023-04-16T15:59:44;11.30;99.90
16247;DHT22;8231;50.866;7.944;2023-04-16T16:02:33;11.10;99.90
16247;DHT22;8231;50.866;7.944;2023-04-16T16:05:02;11.10;99.90
16247;DHT22;8231;50.866;7.944;2023-04-16T16:07:30;11.00;99.90
16247;DHT22;8231;50.866;7.944;2023-04-16T16:09:58;11.10;99.90
16247;DHT22;8231;50.866;7.944;2023-04-16T16:12:27;11.10;99.90
16247;DHT22;8231;50.866;7.944;2023-04-16T16:14:56;11.00;99.90
16247;DHT22;8231;50.866;7.944;2023-04-16T16:17:24;11.00;99.90
16247;DHT22;8231;50.866;7.944;2023-04-16T16:19:54;11.00;99.90
16247;DHT22;8231;50.866;7.944;2023-04-16T16:22:23;11.00;99.90
16247;DHT22;8231;50.866;7.944;2023-04-16T16:24:53;11.00;99.90
16247;DHT22;8231;50.866;7.944;2023-04-16T16:27:21;10.90;99.90
16247;DHT22;8231;50.866;7.944;2023-04-16T16:29:50;10.90;99.90
16247;DHT22;8231;50.866;7.944;2023-04-16T16:32:18;10.90;99.90
16247;DHT22;8231;50.866;7.944;2023-04-16T16:34:46;11.00;99.90
16247;DHT22;8231;50.866;7.944;2023-04-16T16:37:16;10.90;99.90
16247;DHT22;8231;50.866;7.944;2023-04-16T16:39:44;10.80;99.90
16247;DHT22;8231;50.866;7.944;2023-04-16T16:42:12;10.70;99.90
16247;DHT22;8231;50.866;7.944;2023-04-16T16:44:44;10.70;99.90
16247;DHT22;8231;50.866;7.944;2023-04-16T16:47:14;10.70;99.90
16247;DHT22;8231;50.866;7.944;2023-04-16T16:49:43;10.70;99.90
16247;DHT22;8231;50.866;7.944;2023-04-16T16:52:11;10.80;99.90
16247;DHT22;8231;50.866;7.944;2023-04-16T16:54:40;10.70;99.90
16247;DHT22;8231;50.866;7.944;2023-04-16T16:57:09;10.80;99.90
16247;DHT22;8231;50.866;7.944;2023-04-16T16:59:37;10.80;99.90
16247;DHT22;8231;50.866;7.944;2023-04-16T17:02:06;10.80;99.90
16247;DHT22;8231;50.866;7.944;2023-04-16T17:04:35;10.70;99.90
16247;DHT22;8231;50.866;7.944;2023-04-16T17:07:03;10.70;99.90
16247;DHT22;8231;50.866;7.944;2023-04-16T17:09:31;10.80;99.90
16247;DHT22;8231;50.866;7.944;2023-04-16T17:12:00;10.70;99.90
16247;DHT22;8231;50.866;7.944;2023-04-16T17:14:29;10.60;99.90
16247;DHT22;8231;50.866;7.944;2023-04-16T17:16:57;10.60;99.90
16247;DHT22;8231;50.866;7.944;2023-04-16T17:19:26;10.60;99.90
16247;DHT22;8231;50.866;7.944;2023-04-16T17:21:54;10.50;99.90
16247;DHT22;8231;50.866;7.944;2023-04-16T17:24:22;10.50;99.90
16247;DHT22;8231;50.866;7.944;2023-04-16T17:26:53;10.50;99.90
16247;DHT22;8231;50.866;7.944;2023-04-16T17:29:23;10.40;99.90
16247;DHT22;8231;50.866;7.944;2023-04-16T17:31:52;10.50;99.90
16247;DHT22;8231;50.866;7.944;2023-04-16T17:34:20;10.40;99.90
16247;DHT22;8231;50.866;7.944;2023-04-16T17:36:49;10.30;99.90
16247;DHT22;8231;50.866;7.944;2023-04-16T17:39:17;10.30;99.90
16247;DHT22;8231;50.866;7.944;2023-04-16T17:41:46;10.40;99.90
16247;DHT22;8231;50.866;7.944;2023-04-16T17:44:19;10.40;99.90
16247;DHT22;8231;50.866;7.944;2023-04-16T17:46:50;10.30;99.90
16247;DHT22;8231;50.866;7.944;2023-04-16T17:49:18;10.30;99.90
16247;DHT22;8231;50.866;7.944;2023-04-16T17:51:47;10.30;99.90
16247;DHT22;8231;50.866;7.944;2023-04-16T17:54:15;10.30;99.90
16247;DHT22;8231;50.866;7.944;2023-04-16T17:56:43;10.30;99.90
16247;DHT22;8231;50.866;7.944;2023-04-16T17:59:12;10.30;99.90
16247;DHT22;8231;50.866;7.944;2023-04-16T18:01:40;10.30;99.90
16247;DHT22;8231;50.866;7.944;2023-04-16T18:04:32;10.20;99.90
16247;DHT22;8231;50.866;7.944;2023-04-16T18:07:00;10.30;99.90
16247;DHT22;8231;50.866;7.944;2023-04-16T18:09:31;10.30;99.90
16247;DHT22;8231;50.866;7.944;2023-04-16T18:11:59;10.20;99.90
16247;DHT22;8231;50.866;7.944;2023-04-16T18:14:28;10.20;99.90
16247;DHT22;8231;50.866;7.944;2023-04-16T18:16:56;10.20;99.90
16247;DHT22;8231;50.866;7.944;2023-04-16T18:19:25;10.20;99.90
16247;DHT22;8231;50.866;7.944;2023-04-16T18:21:55;10.10;99.90
16247;DHT22;8231;50.866;7.944;2023-04-16T18:24:24;10.10;99.90
16247;DHT22;8231;50.866;7.944;2023-04-16T18:26:53;10.00;99.90
16247;DHT22;8231;50.866;7.944;2023-04-16T18:29:22;10.00;99.90
16247;DHT22;8231;50.866;7.944;2023-04-16T18:31:51;10.00;99.90
16247;DHT22;8231;50.866;7.944;2023-04-16T18:34:21;10.00;99.90
16247;DHT22;8231;50.866;7.944;2023-04-16T18:36:51;9.90;99.90
16247;DHT22;8231;50.866;7.944;2023-04-16T18:39:21;9.90;99.90
16247;DHT22;8231;50.866;7.944;2023-04-16T18:41:49;10.10;99.90
16247;DHT22;8231;50.866;7.944;2023-04-16T18:44:17;9.90;99.90
16247;DHT22;8231;50.866;7.944;2023-04-16T18:46:46;9.80;99.90
16247;DHT22;8231;50.866;7.944;2023-04-16T18:49:15;9.80;99.90
16247;DHT22;8231;50.866;7.944;2023-04-16T18:51:43;9.70;99.90
16247;DHT22;8231;50.866;7.944;2023-04-16T18:54:12;9.70;99.90
16247;DHT22;8231;50.866;7.944;2023-04-16T18:56:41;9.70;99.90
16247;DHT22;8231;50.866;7.944;2023-04-16T18:59:09;9.70;99.90
16247;DHT22;8231;50.866;7.944;2023-04-16T19:01:38;9.70;99.90
16247;DHT22;8231;50.866;7.944;2023-04-16T19:04:07;9.70;99.90
16247;DHT22;8231;50.866;7.944;2023-04-16T19:06:35;9.60;99.90
16247;DHT22;8231;50.866;7.944;2023-04-16T19:09:04;9.70;99.90
16247;DHT22;8231;50.866;7.944;2023-04-16T19:11:32;9.50;99.90
16247;DHT22;8231;50.866;7.944;2023-04-16T19:14:02;9.50;99.90
16247;DHT22;8231;50.866;7.944;2023-04-16T19:16:31;9.50;99.90
16247;DHT22;8231;50.866;7.944;2023-04-16T19:19:00;9.50;99.90
16247;DHT22;8231;50.866;7.944;2023-04-16T19:21:28;9.50;99.90
16247;DHT22;8231;50.866;7.944;2023-04-16T19:23:57;9.50;99.90
16247;DHT22;8231;50.866;7.944;2023-04-16T19:26:25;9.40;99.90
16247;DHT22;8231;50.866;7.944;2023-04-16T19:28:54;9.40;99.90
16247;DHT22;8231;50.866;7.944;2023-04-16T19:31:24;9.40;99.90
16247;DHT22;8231;50.866;7.944;2023-04-16T19:33:52;9.40;99.90
16247;DHT22;8231;50.866;7.944;2023-04-16T19:36:21;9.40;99.90
16247;DHT22;8231;50.866;7.944;2023-04-16T19:38:49;9.50;99.90
16247;DHT22;8231;50.866;7.944;2023-04-16T19:41:17;9.30;99.90
16247;DHT22;8231;50.866;7.944;2023-04-16T19:43:45;9.30;99.90
16247;DHT22;8231;50.866;7.944;2023-04-16T19:46:14;9.30;99.90
16247;DHT22;8231;50.866;7.944;2023-04-16T19:48:43;9.20;99.90
16247;DHT22;8231;50.866;7.944;2023-04-16T19:51:12;9.20;99.90
16247;DHT22;8231;50.866;7.944;2023-04-16T19:53:40;9.30;99.90
16247;DHT22;8231;50.866;7.944;2023-04-16T19:56:08;9.10;99.90
16247;DHT22;8231;50.866;7.944;2023-04-16T19:58:36;9.10;99.90
16247;DHT22;8231;50.866;7.944;2023-04-16T20:01:08;9.20;99.90
16247;DHT22;8231;50.866;7.944;2023-04-16T20:03:37;9.00;99.90
16247;DHT22;8231;50.866;7.944;2023-04-16T20:06:06;9.00;99.90
16247;DHT22;8231;50.866;7.944;2023-04-16T20:08:35;9.00;99.90
16247;DHT22;8231;50.866;7.944;2023-04-16T20:11:04;8.90;99.90
16247;DHT22;8231;50.866;7.944;2023-04-16T20:13:34;8.90;99.90
16247;DHT22;8231;50.866;7.944;2023-04-16T20:16:04;8.90;99.90
16247;DHT22;8231;50.866;7.944;2023-04-16T20:18:35;8.90;99.90
16247;DHT22;8231;50.866;7.944;2023-04-16T20:21:08;8.90;99.90
16247;DHT22;8231;50.866;7.944;2023-04-16T20:23:37;8.90;99.90
16247;DHT22;8231;50.866;7.944;2023-04-16T20:26:05;8.80;99.90
16247;DHT22;8231;50.866;7.944;2023-04-16T20:28:33;8.80;99.90
16247;DHT22;8231;50.866;7.944;2023-04-16T20:31:01;8.80;99.90
16247;DHT22;8231;50.866;7.944;2023-04-16T20:33:30;8.80;99.90
16247;DHT22;8231;50.866;7.944;2023-04-16T20:35:58;8.80;99.90
16247;DHT22;8231;50.866;7.944;2023-04-16T20:38:27;8.80;99.90
16247;DHT22;8231;50.866;7.944;2023-04-16T20:40:58;8.80;99.90
16247;DHT22;8231;50.866;7.944;2023-04-16T20:43:36;8.80;99.90
16247;DHT22;8231;50.866;7.944;2023-04-16T20:46:06;8.80;99.90
16247;DHT22;8231;50.866;7.944;2023-04-16T20:48:35;8.80;99.90
16247;DHT22;8231;50.866;7.944;2023-04-16T20:51:05;8.70;99.90
16247;DHT22;8231;50.866;7.944;2023-04-16T20:53:36;8.80;99.90
16247;DHT22;8231;50.866;7.944;2023-04-16T20:56:05;8.70;99.90
16247;DHT22;8231;50.866;7.944;2023-04-16T20:58:35;8.60;99.90
16247;DHT22;8231;50.866;7.944;2023-04-16T21:01:24;8.60;99.90
16247;DHT22;8231;50.866;7.944;2023-04-16T21:03:52;8.60;99.90
16247;DHT22;8231;50.866;7.944;2023-04-16T21:06:21;8.60;99.90
16247;DHT22;8231;50.866;7.944;2023-04-16T21:08:50;8.50;99.90
16247;DHT22;8231;50.866;7.944;2023-04-16T21:11:18;8.50;99.90
16247;DHT22;8231;50.866;7.944;2023-04-16T21:13:47;8.50;99.90
16247;DHT22;8231;50.866;7.944;2023-04-16T21:16:15;8.60;99.90
16247;DHT22;8231;50.866;7.944;2023-04-16T21:18:44;8.50;99.90
16247;DHT22;8231;50.866;7.944;2023-04-16T21:21:13;8.60;99.90
16247;DHT22;8231;50.866;7.944;2023-04-16T21:23:41;8.50;99.90
16247;DHT22;8231;50.866;7.944;2023-04-16T21:26:11;8.50;99.90
16247;DHT22;8231;50.866;7.944;2023-04-16T21:28:39;8.50;99.90
16247;DHT22;8231;50.866;7.944;2023-04-16T21:31:08;8.50;99.90
16247;DHT22;8231;50.866;7.944;2023-04-16T21:33:36;8.50;99.90
16247;DHT22;8231;50.866;7.944;2023-04-16T21:36:05;8.40;99.90
16247;DHT22;8231;50.866;7.944;2023-04-16T21:38:34;8.40;99.90
16247;DHT22;8231;50.866;7.944;2023-04-16T21:41:02;8.30;99.90
16247;DHT22;8231;50.866;7.944;2023-04-16T21:43:32;8.20;99.90
16247;DHT22;8231;50.866;7.944;2023-04-16T21:46:00;8.20;99.90
16247;DHT22;8231;50.866;7.944;2023-04-16T21:48:29;8.20;99.90
16247;DHT22;8231;50.866;7.944;2023-04-16T21:50:58;8.10;99.90
16247;DHT22;8231;50.866;7.944;2023-04-16T21:53:32;8.10;99.90
16247;DHT22;8231;50.866;7.944;2023-04-16T21:56:00;8.10;99.90
16247;DHT22;8231;50.866;7.944;2023-04-16T21:58:29;8.10;99.90
16247;DHT22;8231;50.866;7.944;2023-04-16T22:00:59;8.20;99.90
16247;DHT22;8231;50.866;7.944;2023-04-16T22:03:27;8.10;99.90
16247;DHT22;8231;50.866;7.944;2023-04-16T22:05:57;8.20;99.90
16247;DHT22;8231;50.866;7.944;2023-04-16T22:08:27;8.00;99.90
16247;DHT22;8231;50.866;7.944;2023-04-16T22:10:56;8.10;99.90
16247;DHT22;8231;50.866;7.944;2023-04-16T22:13:26;8.00;99.90
16247;DHT22;8231;50.866;7.944;2023-04-16T22:15:55;8.10;99.90
16247;DHT22;8231;50.866;7.944;2023-04-16T22:18:25;8.00;99.90
16247;DHT22;8231;50.866;7.944;2023-04-16T22:20:55;8.00;99.90
16247;DHT22;8231;50.866;7.944;2023-04-16T22:23:24;7.90;99.90
16247;DHT22;8231;50.866;7.944;2023-04-16T22:25:53;7.90;99.90
16247;DHT22;8231;50.866;7.944;2023-04-16T22:28:22;7.90;99.90
16247;DHT22;8231;50.866;7.944;2023-04-16T22:30:50;7.90;99.90
16247;DHT22;8231;50.866;7.944;2023-04-16T22:33:19;8.00;99.90
16247;DHT22;8231;50.866;7.944;2023-04-16T22:35:49;7.80;99.90
16247;DHT22;8231;50.866;7.944;2023-04-16T22:38:17;7.80;99.90
16247;DHT22;8231;50.866;7.944;2023-04-16T22:40:46;7.80;99.90
16247;DHT22;8231;50.866;7.944;2023-04-16T22:43:15;7.80;99.90
16247;DHT22;8231;50.866;7.944;2023-04-16T22:45:43;7.80;99.90
16247;DHT22;8231;50.866;7.944;2023-04-16T22:48:13;7.90;99.90
16247;DHT22;8231;50.866;7.944;2023-04-16T22:50:44;7.70;99.90
16247;DHT22;8231;50.866;7.944;2023-04-16T22:53:15;7.90;99.90
16247;DHT22;8231;50.866;7.944;2023-04-16T22:55:44;7.70;99.90
16247;DHT22;8231;50.866;7.944;2023-04-16T22:58:12;7.60;99.90
16247;DHT22;8231;50.866;7.944;2023-04-16T23:00:40;7.60;99.90
16247;DHT22;8231;50.866;7.944;2023-04-16T23:03:09;7.60;99.90
16247;DHT22;8231;50.866;7.944;2023-04-16T23:05:38;7.60;99.90
16247;DHT22;8231;50.866;7.944;2023-04-16T23:08:06;7.60;99.90
16247;DHT22;8231;50.866;7.944;2023-04-16T23:10:36;7.60;99.90
16247;DHT22;8231;50.866;7.944;2023-04-16T23:13:04;7.60;99.90
16247;DHT22;8231;50.866;7.944;2023-04-16T23:15:33;7.60;99.90
16247;DHT22;8231;50.866;7.944;2023-04-16T23:18:02;7.60;99.90
16247;DHT22;8231;50.866;7.944;2023-04-16T23:20:30;7.60;99.90
16247;DHT22;8231;50.866;7.944;2023-04-16T23:22:58;7.60;99.90
16247;DHT22;8231;50.866;7.944;2023-04-16T23:25:27;7.60;99.90
16247;DHT22;8231;50.866;7.944;2023-04-16T23:27:56;7.60;99.90
16247;DHT22;8231;50.866;7.944;2023-04-16T23:30:25;7.60;99.90
16247;DHT22;8231;50.866;7.944;2023-04-16T23:32:53;7.60;99.90
16247;DHT22;8231;50.866;7.944;2023-04-16T23:35:22;7.70;99.90
16247;DHT22;8231;50.866;7.944;2023-04-16T23:37:50;7.70;99.90
16247;DHT22;8231;50.866;7.944;2023-04-16T23:40:18;7.70;99.90
16247;DHT22;8231;50.866;7.944;2023-04-16T23:42:46;7.70;99.90
16247;DHT22;8231;50.866;7.944;2023-04-16T23:45:16;7.70;99.90
16247;DHT22;8231;50.866;7.944;2023-04-16T23:47:45;7.70;99.90
16247;DHT22;8231;50.866;7.944;2023-04-16T23:50:13;7.70;99.90
16247;DHT22;8231;50.866;7.944;2023-04-16T23:52:42;7.70;99.90
16247;DHT22;8231;50.866;7.944;2023-04-16T23:55:10;7.70;99.90
16247;DHT22;8231;50.866;7.944;2023-04-16T23:57:38;7.70;99.90
